Time;durP1;ratioP1;P1;durP2;ratioP2;P2;SDS_P1;SDS_P2;PMS_P1;PMS_P2;Temp;Humidity;BMP_temperature;BMP_pressure;BME280_temperature;BME280_humidity;BME280_pressure;Samples;Min_cycle;Max_cycle;Signal;HPM_P1;HPM_P2
2023/05/24 00:12:02;;;;;;;14.43;7.10;;;;;;;18.65;100.00;99916.09;31593470;28;20488;-74
2023/05/24 00:27:05;;;;;;;9.88;6.05;;;;;;;18.62;100.00;99922.56;31613792;28;20035;-76
2023/05/24 00:42:07;;;;;;;16.40;6.95;;;;;;;18.45;100.00;99905.00;31603121;28;20134;-75
2023/05/24 00:57:12;;;;;;;14.27;6.97;;;;;;;18.34;100.00;99904.84;31604108;28;20130;-75
2023/05/24 01:12:46;;;;;;;17.00;8.23;;;;;;;18.32;100.00;99897.09;31607427;28;20049;-73
2023/05/24 01:27:49;;;;;;;21.67;10.57;;;;;;;18.48;100.00;99887.56;31583666;28;20468;-75
2023/05/24 01:43:08;;;;;;;17.73;8.77;;;;;;;18.19;100.00;99879.41;31614740;28;20086;-75
2023/05/24 01:58:12;;;;;;;16.92;8.00;;;;;;;18.08;100.00;99890.19;31602087;28;20078;-75
2023/05/24 02:13:18;;;;;;;14.40;7.60;;;;;;;18.03;100.00;99906.09;31605609;28;20508;-75
2023/05/24 02:28:20;;;;;;;20.88;8.57;;;;;;;18.00;100.00;99920.78;31593593;28;20059;-76
2023/05/24 02:43:22;;;;;;;23.70;8.93;;;;;;;18.21;100.00;99931.84;31602675;28;20064;-74
2023/05/24 02:58:27;;;;;;;13.20;7.78;;;;;;;18.32;100.00;99926.56;31594159;28;20048;-75
2023/05/24 03:13:30;;;;;;;13.73;8.18;;;;;;;18.59;100.00;99929.00;31607516;28;20152;-76
2023/05/24 03:28:32;;;;;;;14.02;7.47;;;;;;;18.85;100.00;99936.63;31588034;28;20140;-76
2023/05/24 03:43:34;;;;;;;18.65;8.02;;;;;;;18.92;100.00;99944.47;31631845;28;20052;-75
2023/05/24 03:58:36;;;;;;;17.17;7.70;;;;;;;19.43;100.00;99939.13;31608318;28;20131;-75
2023/05/24 04:13:38;;;;;;;19.20;9.02;;;;;;;19.63;100.00;99929.34;31615350;28;20496;-77
2023/05/24 04:28:41;;;;;;;20.63;11.00;;;;;;;19.60;100.00;99933.09;31621010;28;20051;-76
2023/05/24 04:43:43;;;;;;;22.70;12.32;;;;;;;20.04;100.00;99941.03;31625363;28;20048;-75
2023/05/24 04:58:46;;;;;;;52.30;22.35;;;;;;;20.46;100.00;99948.69;31629119;28;20051;-75
2023/05/24 05:13:48;;;;;;;52.67;23.40;;;;;;;21.25;100.00;99967.28;31582786;28;20062;-76
2023/05/24 05:28:50;;;;;;;44.40;21.63;;;;;;;22.11;100.00;99968.53;31617988;28;20040;-76
2023/05/24 05:43:52;;;;;;;53.63;22.63;;;;;;;22.41;100.00;99981.91;31612816;28;20058;-75
2023/05/24 05:58:54;;;;;;;19.88;9.63;;;;;;;23.28;100.00;99992.59;31615604;28;20076;-76
2023/05/24 06:13:56;;;;;;;13.50;8.87;;;;;;;23.03;100.00;99988.13;31580577;28;20044;-74
2023/05/24 06:28:58;;;;;;;19.27;11.97;;;;;;;23.75;100.00;99984.34;31616107;28;20051;-75
2023/05/24 06:44:00;;;;;;;21.57;10.90;;;;;;;24.32;100.00;99975.19;31596417;28;20044;-76
2023/05/24 06:59:02;;;;;;;20.10;12.17;;;;;;;25.67;100.00;99975.31;31607792;28;20135;-75
2023/05/24 07:14:04;;;;;;;10.83;4.53;;;;;;;26.39;100.00;99969.97;31574639;28;20085;-75
2023/05/24 07:29:07;;;;;;;6.57;3.37;;;;;;;26.94;100.00;99984.19;31600397;28;20408;-75
2023/05/24 07:44:10;;;;;;;11.30;4.07;;;;;;;27.14;100.00;99981.56;31562063;28;20098;-76
2023/05/24 07:59:14;;;;;;;6.72;4.50;;;;;;;25.29;100.00;99979.31;31592591;28;20506;-78
2023/05/24 08:14:16;;;;;;;7.28;2.92;;;;;;;27.02;100.00;99979.53;31606849;28;20431;-77
2023/05/24 08:29:18;;;;;;;;;;;;;;;27.79;100.00;99945.75;31623120;28;20139;-75
2023/05/24 08:44:22;;;;;;;8.05;2.78;;;;;;;27.47;100.00;99952.25;31639256;28;19926;-76
2023/05/24 08:59:24;;;;;;;9.50;2.85;;;;;;;28.22;100.00;99952.91;31606183;28;20497;-78
2023/05/24 09:14:26;;;;;;;9.27;3.00;;;;;;;28.38;100.00;99946.16;31614090;28;20048;-83
2023/05/24 09:29:28;;;;;;;7.90;2.78;;;;;;;28.44;100.00;99952.34;31617690;28;20564;-82
2023/05/24 09:44:30;;;;;;;8.70;3.85;;;;;;;27.78;100.00;99981.28;31623616;28;20147;-82
2023/05/24 09:59:35;;;;;;;5.90;2.90;;;;;;;28.64;100.00;99973.91;31591828;28;20132;-84
2023/05/24 10:14:38;;;;;;;5.82;3.55;;;;;;;26.09;100.00;99976.50;31541187;28;20064;-80
2023/05/24 10:29:45;;;;;;;10.30;3.25;;;;;;;24.78;100.00;100002.03;31606058;28;20052;-77
2023/05/24 10:44:47;;;;;;;7.70;2.88;;;;;;;24.11;100.00;100002.53;31618548;28;20085;-76
2023/05/24 10:59:50;;;;;;;13.00;3.83;;;;;;;24.54;100.00;99996.47;31605128;28;20080;-76
2023/05/24 11:14:52;;;;;;;;;;;;;;;24.63;100.00;100003.69;31601092;28;20179;-77
2023/05/24 11:29:57;;;;;;;5.78;2.38;;;;;;;24.07;100.00;99999.31;31596939;28;20367;-78
2023/05/24 11:44:59;;;;;;;8.80;2.47;;;;;;;24.19;100.00;99983.31;31609414;28;20047;-77
2023/05/24 12:00:02;;;;;;;5.20;2.10;;;;;;;24.28;100.00;99960.09;31620944;28;20362;-75
2023/05/24 12:15:07;;;;;;;8.93;2.10;;;;;;;24.20;100.00;99953.56;31626864;28;20063;-78
2023/05/24 12:30:17;;;;;;;4.68;2.38;;;;;;;24.31;100.00;99939.66;31618285;28;20090;-81
2023/05/24 12:45:24;;;;;;;2.33;1.60;;;;;;;24.38;100.00;99939.81;31616013;28;20052;-81
2023/05/24 13:00:28;;;;;;;7.97;2.58;;;;;;;24.62;100.00;99946.69;31626178;28;20888;-83
2023/05/24 13:15:30;;;;;;;6.25;1.77;;;;;;;24.48;100.00;99937.47;31631025;28;20139;-76
2023/05/24 13:30:33;;;;;;;5.53;2.05;;;;;;;24.00;100.00;99960.28;31604927;28;20123;-81
2023/05/24 13:45:35;;;;;;;5.30;1.83;;;;;;;23.88;100.00;99942.94;31617899;28;20059;-83
2023/05/24 14:00:41;;;;;;;7.27;1.77;;;;;;;23.84;100.00;99936.94;31603087;28;20063;-84
2023/05/24 14:15:45;;;;;;;4.20;2.05;;;;;;;24.04;100.00;99922.69;31607522;28;20507;-82
2023/05/24 14:30:50;;;;;;;5.57;2.72;;;;;;;24.10;100.00;99919.84;31589759;28;20049;-83
2023/05/24 14:45:52;;;;;;;3.70;1.50;;;;;;;24.31;100.00;99928.56;31612820;28;20071;-83
2023/05/24 15:00:54;;;;;;;4.57;1.80;;;;;;;24.44;100.00;99931.47;31606266;28;20406;-83
2023/05/24 15:15:59;;;;;;;7.03;2.77;;;;;;;24.37;100.00;99923.69;31610689;28;20058;-81
2023/05/24 15:31:06;;;;;;;12.85;3.90;;;;;;;24.44;100.00;99915.56;31643686;28;20493;-84
2023/05/24 15:46:08;;;;;;;3.67;1.40;;;;;;;24.59;100.00;99915.16;31639177;28;20051;-85
2023/05/24 16:01:10;;;;;;;6.97;2.20;;;;;;;24.48;100.00;99909.75;31635464;28;20051;-85
2023/05/24 16:16:12;;;;;;;13.87;3.77;;;;;;;24.36;100.00;99920.16;31608962;28;20048;-84
2023/05/24 16:31:17;;;;;;;8.73;3.15;;;;;;;24.07;100.00;99916.13;31624494;28;20059;-84
2023/05/24 16:46:19;;;;;;;18.87;7.60;;;;;;;23.78;100.00;99914.81;31635810;28;20075;-84
2023/05/24 17:01:21;;;;;;;23.40;14.00;;;;;;;23.61;100.00;99932.81;31642078;28;20047;-85
2023/05/24 17:16:26;;;;;;;8.67;3.50;;;;;;;23.26;100.00;99969.44;31641732;28;20796;-86
2023/05/24 17:31:28;;;;;;;8.23;3.35;;;;;;;22.80;100.00;99979.13;31593762;28;20096;-85
2023/05/24 17:46:31;;;;;;;7.18;3.72;;;;;;;22.34;100.00;99996.22;31596931;28;20060;-87
2023/05/24 18:01:37;;;;;;;8.50;4.25;;;;;;;22.10;100.00;100025.09;31616621;28;20455;-86
2023/05/24 18:16:39;;;;;;;8.25;3.80;;;;;;;22.13;100.00;100039.91;31601174;28;20143;-85
2023/05/24 18:31:41;;;;;;;9.90;4.20;;;;;;;21.81;100.00;100039.28;31569073;28;20051;-76
2023/05/24 18:46:43;;;;;;;8.30;3.58;;;;;;;21.40;100.00;100030.56;31606332;28;20063;-77
2023/05/24 19:01:46;;;;;;;12.23;3.58;;;;;;;21.16;100.00;100053.00;31572896;28;20413;-75
2023/05/24 19:16:48;;;;;;;11.20;2.97;;;;;;;21.07;100.00;100081.53;31595636;28;20044;-84
2023/05/24 19:31:52;;;;;;;8.45;3.35;;;;;;;20.70;100.00;100073.22;31609863;28;20133;-85
2023/05/24 19:46:54;;;;;;;7.63;3.13;;;;;;;20.39;100.00;100053.88;31629285;28;20048;-84
2023/05/24 20:01:56;;;;;;;13.65;3.38;;;;;;;20.26;100.00;100072.78;31621519;28;20048;-85
2023/05/24 20:17:00;;;;;;;10.15;3.45;;;;;;;19.91;100.00;100068.13;31648025;28;20048;-82
2023/05/24 20:47:47;;;;;;;7.15;3.05;;;;;;;19.66;100.00;100046.78;31619598;28;20049;-81
2023/05/24 21:02:50;;;;;;;18.92;7.07;;;;;;;19.43;100.00;100037.47;31613083;28;20048;-83
2023/05/24 21:17:52;;;;;;;9.70;3.38;;;;;;;19.27;100.00;100024.25;31602898;28;20060;-81
2023/05/24 21:32:54;;;;;;;11.55;3.35;;;;;;;19.08;100.00;100029.22;31598836;28;20052;-81
2023/05/24 21:47:56;;;;;;;12.88;4.28;;;;;;;19.21;100.00;100032.41;31583696;28;20058;-80
2023/05/24 22:02:59;;;;;;;7.05;3.58;;;;;;;19.16;100.00;100019.31;31603284;28;20048;-81
2023/05/24 22:18:01;;;;;;;7.28;4.47;;;;;;;19.19;100.00;100012.09;31607647;28;20147;-80
2023/05/24 22:33:03;;;;;;;8.70;3.67;;;;;;;19.12;100.00;100013.28;31630800;28;20067;-81
2023/05/24 22:48:06;;;;;;;13.38;4.38;;;;;;;19.02;100.00;100042.13;31603883;28;20401;-80
2023/05/24 23:03:08;;;;;;;8.98;4.15;;;;;;;18.94;100.00;100052.00;31594360;28;20381;-82
2023/05/24 23:18:14;;;;;;;8.48;4.95;;;;;;;18.58;100.00;100045.66;31572141;28;20054;-81
2023/05/24 23:33:16;;;;;;;9.55;4.10;;;;;;;18.37;100.00;100060.53;31598665;28;20044;-81
2023/05/24 23:48:20;;;;;;;9.50;4.10;;;;;;;18.54;100.00;100080.84;31604485;28;20063;-80
